createdAt,value
2022-11-26T00:01:05.058Z,101549.16
2022-11-26T00:06:46.084Z,101543.34
2022-11-26T00:09:26.683Z,101527.19
2022-11-26T00:12:00.280Z,101534.31
2022-11-26T00:14:53.947Z,101532.72
2022-11-26T00:17:57.984Z,101524.13
2022-11-26T00:21:21.852Z,101517.25
2022-11-26T00:23:58.110Z,101517.34
2022-11-26T00:26:40.099Z,101527.06
2022-11-26T00:29:30.111Z,101512.66
2022-11-26T00:32:17.415Z,101511.97
2022-11-26T00:34:49.531Z,101520.66
2022-11-26T00:37:23.664Z,101507.88
2022-11-26T00:40:05.495Z,101507.78
2022-11-26T00:49:59.898Z,101508.50
2022-11-26T00:52:38.866Z,101497.41
2022-11-26T00:55:27.301Z,101492.28
2022-11-26T00:57:57.829Z,101499.09
2022-11-26T01:00:42.441Z,101499.94
2022-11-26T01:03:26.855Z,101498.28
2022-11-26T01:09:12.919Z,101479.22
2022-11-26T01:11:54.290Z,101480.75
2022-11-26T01:14:44.529Z,101495.41
2022-11-26T01:17:31.492Z,101497.16
2022-11-26T01:20:07.831Z,101503.25
2022-11-26T01:22:39.560Z,101487.00
2022-11-26T01:25:18.424Z,101476.66
2022-11-26T01:28:23.286Z,101485.28
2022-11-26T01:36:58.513Z,101456.88
2022-11-26T01:39:35.127Z,101452.53
2022-11-26T01:42:16.401Z,101461.94
2022-11-26T01:44:47.857Z,101471.47
2022-11-26T01:47:58.567Z,101452.59
2022-11-26T01:51:20.547Z,101463.88
2022-11-26T01:54:13.158Z,101451.00
2022-11-26T02:00:27.629Z,101432.81
2022-11-26T02:03:12.366Z,101439.47
2022-11-26T02:05:53.791Z,101443.81
2022-11-26T02:08:31.517Z,101429.31
2022-11-26T02:11:16.263Z,101440.59
2022-11-26T02:13:50.858Z,101451.00
2022-11-26T02:16:45.527Z,101454.00
2022-11-26T02:20:16.301Z,101448.28
2022-11-26T02:23:46.937Z,101446.78
2022-11-26T02:26:57.400Z,101429.75
2022-11-26T02:30:14.724Z,101418.59
2022-11-26T02:33:05.789Z,101431.50
2022-11-26T02:35:44.678Z,101420.38
2022-11-26T02:38:34.336Z,101431.63
2022-11-26T02:41:25.701Z,101428.94
2022-11-26T02:44:02.832Z,101428.75
2022-11-26T02:53:41.662Z,101425.03
2022-11-26T02:54:26.856Z,101427.63
2022-11-26T02:57:04.920Z,101411.22
2022-11-26T02:59:39.227Z,101406.88
2022-11-26T03:05:34.408Z,101410.38
2022-11-26T03:11:35.314Z,101393.84
2022-11-26T03:14:36.871Z,101383.59
2022-11-26T03:18:17.566Z,101392.31
2022-11-26T03:20:20.110Z,101380.34
2022-11-26T03:26:05.366Z,101388.19
2022-11-26T03:28:47.807Z,101376.19
2022-11-26T03:31:22.493Z,101361.63
2022-11-26T03:34:12.388Z,101373.66
2022-11-26T03:36:59.882Z,101347.78
2022-11-26T03:39:55.386Z,101349.31
2022-11-26T03:52:25.895Z,101336.34
2022-11-26T03:58:30.372Z,101335.44
2022-11-26T04:01:25.249Z,101320.88
2022-11-26T04:04:05.970Z,101331.41
2022-11-26T04:07:31.731Z,101328.91
2022-11-26T04:10:12.271Z,101329.09
2022-11-26T04:13:05.721Z,101328.31
2022-11-26T04:16:00.938Z,101321.47
2022-11-26T04:21:58.086Z,101314.63
2022-11-26T04:25:05.097Z,101317.19
2022-11-26T04:27:55.301Z,101300.75
2022-11-26T04:30:41.269Z,101309.31
2022-11-26T04:33:18.328Z,101304.16
2022-11-26T04:39:52.533Z,101299.81
2022-11-26T04:42:42.498Z,101299.78
2022-11-26T04:51:51.258Z,101281.84
2022-11-26T04:54:47.539Z,101290.50
2022-11-26T05:01:46.343Z,101284.44
2022-11-26T05:05:09.615Z,101292.31
2022-11-26T05:08:00.522Z,101284.56
2022-11-26T05:25:19.655Z,101264.28
2022-11-26T05:28:04.800Z,101255.63
2022-11-26T05:44:58.693Z,101234.78
2022-11-26T05:48:10.503Z,101236.53
2022-11-26T05:51:23.515Z,101245.19
2022-11-26T05:54:25.451Z,101237.44
2022-11-26T05:57:51.755Z,101231.34
2022-11-26T06:08:04.156Z,101202.97
2022-11-26T06:20:18.824Z,101199.53
2022-11-26T06:23:09.593Z,101194.38
2022-11-26T07:06:00.698Z,101129.19
2022-11-26T07:09:35.775Z,101130.06
2022-11-26T07:42:59.621Z,101090.84
2022-11-26T07:49:32.534Z,101088.34
2022-11-26T07:52:59.165Z,101091.75
2022-11-26T08:07:01.346Z,101067.78
2022-11-26T08:09:29.543Z,101074.72
2022-11-26T08:11:57.706Z,101078.19
2022-11-26T08:14:25.953Z,101069.59
2022-11-26T08:16:54.221Z,101075.69
2022-11-26T08:19:22.540Z,101074.88
2022-11-26T08:21:50.594Z,101069.69
2022-11-26T08:24:21.136Z,101071.44
2022-11-26T08:26:49.272Z,101059.38
2022-11-26T08:29:17.379Z,101056.88
2022-11-26T08:31:46.750Z,101055.19
2022-11-26T08:34:17.110Z,101047.47
2022-11-26T08:36:44.965Z,101048.38
2022-11-26T08:39:14.078Z,101044.13
2022-11-26T08:41:47.396Z,101037.19
2022-11-26T08:44:18.609Z,101043.28
2022-11-26T08:46:46.634Z,101047.63
2022-11-26T08:49:15.636Z,101047.69
2022-11-26T08:51:44.259Z,101040.78
2022-11-26T08:54:12.410Z,101039.13
2022-11-26T08:56:40.996Z,101037.44
2022-11-26T08:59:10.464Z,101030.69
2022-11-26T09:01:38.754Z,101039.34
2022-11-26T09:04:07.249Z,101035.97
2022-11-26T09:06:37.908Z,101029.16
2022-11-26T09:09:18.072Z,101024.84
2022-11-26T09:11:50.644Z,101015.47
2022-11-26T09:14:21.728Z,101022.38
2022-11-26T09:16:50.073Z,101017.25
2022-11-26T09:19:19.244Z,101018.19
2022-11-26T09:21:48.019Z,101010.44
2022-11-26T09:24:17.407Z,101010.47
2022-11-26T09:26:45.858Z,101007.06
2022-11-26T09:29:15.366Z,101012.25
2022-11-26T09:32:15.509Z,101018.25
2022-11-26T09:34:33.405Z,101036.34
2022-11-26T09:37:01.628Z,101023.41
2022-11-26T09:39:30.051Z,101023.41
2022-11-26T09:42:05.551Z,101033.84
2022-11-26T09:44:56.948Z,101032.16
2022-11-26T09:47:28.249Z,101019.28
2022-11-26T09:50:08.228Z,101006.41
2022-11-26T09:52:40.064Z,100996.09
2022-11-26T09:55:17.359Z,100986.66
2022-11-26T09:57:50.787Z,100989.25
2022-11-26T10:00:26.645Z,100984.91
2022-11-26T10:02:57.749Z,100985.72
2022-11-26T10:05:41.481Z,100977.09
2022-11-26T10:08:30.234Z,100982.28
2022-11-26T10:11:04.166Z,100989.19
2022-11-26T10:13:43.474Z,100974.56
2022-11-26T10:16:26.751Z,100971.97
2022-11-26T10:19:04.248Z,100974.50
2022-11-26T10:21:58.120Z,100964.13
2022-11-26T10:24:30.589Z,100970.22
2022-11-26T10:27:02.979Z,100969.44
2022-11-26T10:29:38.582Z,100961.75
2022-11-26T10:32:15.190Z,100976.44
2022-11-26T10:34:52.018Z,100977.34
2022-11-26T10:37:21.875Z,100991.13
2022-11-26T10:39:55.242Z,100970.47
2022-11-26T10:42:26.821Z,100964.41
2022-11-26T10:44:55.056Z,100971.28
2022-11-26T10:47:28.893Z,100972.16
2022-11-26T10:50:45.585Z,100958.38
2022-11-26T10:53:07.275Z,100965.25
2022-11-26T10:55:39.686Z,100956.63
2022-11-26T10:58:16.197Z,100955.78
2022-11-26T11:00:47.191Z,100941.16
2022-11-26T11:03:28.549Z,100938.63
2022-11-26T11:06:28.565Z,100937.81
2022-11-26T11:08:56.796Z,100938.69
2022-11-26T11:11:26.591Z,100939.56
2022-11-26T11:13:55.529Z,100935.28
2022-11-26T11:16:28.622Z,100939.63
2022-11-26T11:18:59.180Z,100933.59
2022-11-26T11:21:31.323Z,100915.47
2022-11-26T11:24:11.152Z,100924.94
2022-11-26T11:26:42.554Z,100912.03
2022-11-26T11:29:27.730Z,100932.75
2022-11-26T11:31:56.594Z,100924.09
2022-11-26T11:34:30.943Z,100924.09
2022-11-26T11:37:05.724Z,100917.22
2022-11-26T11:39:35.787Z,100915.47
2022-11-26T11:42:07.744Z,100912.00
2022-11-26T11:44:40.916Z,100909.41
2022-11-26T11:47:34.573Z,100905.06
2022-11-26T11:50:22.296Z,100903.31
2022-11-26T11:53:19.618Z,100898.19
2022-11-26T11:56:00.904Z,100890.47
2022-11-26T11:58:43.022Z,100879.25
2022-11-26T12:01:18.636Z,100868.94
2022-11-26T12:04:18.012Z,100861.19
2022-11-26T12:07:35.333Z,100857.69
2022-11-26T12:10:21.850Z,100842.06
2022-11-26T12:13:10.996Z,100830.78
2022-11-26T12:16:18.620Z,100832.50
2022-11-26T12:19:01.750Z,100828.13
2022-11-26T12:22:28.354Z,100816.03
2022-11-26T12:25:48.051Z,100804.81
2022-11-26T12:28:35.358Z,100804.84
2022-11-26T12:31:07.353Z,100785.06
2022-11-26T12:33:41.552Z,100770.38
2022-11-26T12:36:18.363Z,100785.94
2022-11-26T12:38:52.427Z,100768.66
2022-11-26T12:41:26.787Z,100763.53
2022-11-26T12:44:01.922Z,100773.88
2022-11-26T12:46:40.491Z,100766.16
2022-11-26T12:49:21.382Z,100761.84
2022-11-26T12:51:56.587Z,100748.03
2022-11-26T12:54:30.229Z,100747.19
2022-11-26T12:57:05.311Z,100746.38
2022-11-26T12:59:39.428Z,100743.84
2022-11-26T13:02:21.231Z,100734.41
2022-11-26T13:04:50.182Z,100722.31
2022-11-26T13:07:39.503Z,100724.94
2022-11-26T13:10:21.569Z,100728.41
2022-11-26T13:12:59.913Z,100716.25
2022-11-26T13:15:36.191Z,100730.91
2022-11-26T13:18:12.121Z,100723.13
2022-11-26T13:20:59.286Z,100724.78
2022-11-26T13:23:42.205Z,100717.88
2022-11-26T13:26:31.040Z,100681.56
2022-11-26T13:29:14.287Z,100686.81
2022-11-26T13:32:01.388Z,100690.28
2022-11-26T13:34:50.520Z,100671.31
2022-11-26T13:37:42.286Z,100672.97
2022-11-26T13:40:41.640Z,100666.94
2022-11-26T13:43:30.287Z,100654.78
2022-11-26T13:46:09.628Z,100659.09
2022-11-26T13:48:46.963Z,100659.94
2022-11-26T13:51:24.211Z,100632.28
2022-11-26T13:53:58.803Z,100620.22
2022-11-26T13:56:32.367Z,100614.19
2022-11-26T13:59:04.222Z,100601.28
2022-11-26T14:01:37.196Z,100593.53
2022-11-26T14:04:08.461Z,100570.22
2022-11-26T14:06:36.706Z,100576.28
2022-11-26T14:09:09.644Z,100574.53
2022-11-26T14:11:58.191Z,100576.25
2022-11-26T14:14:37.594Z,100568.47
2022-11-26T14:17:21.896Z,100550.31
2022-11-26T14:20:07.034Z,100561.56
2022-11-26T14:22:37.339Z,100560.69
2022-11-26T14:25:08.122Z,100546.88
2022-11-26T14:27:38.057Z,100542.59
2022-11-26T14:30:22.744Z,100549.50
2022-11-26T14:33:08.043Z,100537.41
2022-11-26T14:35:38.896Z,100536.56
2022-11-26T14:38:26.522Z,100534.81
2022-11-26T14:40:59.546Z,100531.34
2022-11-26T14:43:28.218Z,100517.50
2022-11-26T14:46:31.171Z,100514.88
2022-11-26T14:49:46.587Z,100505.41
2022-11-26T14:52:20.035Z,100496.75
2022-11-26T14:54:54.372Z,100494.19
2022-11-26T14:57:27.461Z,100482.97
2022-11-26T15:00:01.287Z,100481.28
2022-11-26T15:02:31.231Z,100467.47
2022-11-26T15:05:03.082Z,100457.13
2022-11-26T15:07:32.873Z,100470.94
2022-11-26T15:10:02.881Z,100465.72
2022-11-26T15:12:31.697Z,100463.16
2022-11-26T15:15:02.989Z,100472.63
2022-11-26T15:17:33.718Z,100454.53
2022-11-26T15:20:07.832Z,100457.13
2022-11-26T15:22:39.491Z,100447.63
2022-11-26T15:25:18.540Z,100436.38
2022-11-26T15:27:55.017Z,100440.69
2022-11-26T15:30:25.557Z,100433.78
2022-11-26T15:33:04.870Z,100430.28
2022-11-26T15:35:36.403Z,100444.09
2022-11-26T15:38:07.804Z,100446.69
2022-11-26T15:40:47.001Z,100453.59
2022-11-26T15:43:22.752Z,100449.28
2022-11-26T15:46:05.966Z,100450.13
2022-11-26T15:48:55.677Z,100431.13
2022-11-26T15:51:34.953Z,100434.59
2022-11-26T15:54:04.608Z,100419.88
2022-11-26T15:56:35.557Z,100425.06
2022-11-26T15:59:07.039Z,100432.84
2022-11-26T16:01:37.635Z,100427.66
2022-11-26T16:04:06.647Z,100419.88
2022-11-26T16:06:38.082Z,100400.91
2022-11-26T16:09:27.950Z,100388.84
2022-11-26T16:11:59.652Z,100401.75
2022-11-26T16:14:33.372Z,100394.00
2022-11-26T16:17:08.226Z,100386.22
2022-11-26T16:19:37.749Z,100381.94
2022-11-26T16:22:08.199Z,100385.34
2022-11-26T16:24:38.750Z,100375.88
2022-11-26T16:27:25.011Z,100358.59
2022-11-26T16:29:53.351Z,100345.66
2022-11-26T16:32:21.592Z,100327.47
2022-11-26T16:34:50.029Z,100339.53
2022-11-26T16:37:23.541Z,100366.22
2022-11-26T16:39:53.000Z,100371.41
2022-11-26T16:42:22.936Z,100365.38
2022-11-26T16:44:51.389Z,100367.13
2022-11-26T16:47:24.202Z,100361.09
2022-11-26T16:49:52.832Z,100361.97
2022-11-26T16:52:22.653Z,100355.06
2022-11-26T16:54:50.804Z,100349.03
2022-11-26T16:57:21.164Z,100348.16
2022-11-26T16:59:52.729Z,100334.38
2022-11-26T17:02:24.223Z,100318.88
2022-11-26T17:04:52.738Z,100341.31
2022-11-26T17:07:25.949Z,100343.00
2022-11-26T17:09:55.089Z,100325.81
2022-11-26T17:12:26.042Z,100319.78
2022-11-26T17:14:54.032Z,100338.75
2022-11-26T17:17:29.425Z,100328.41
2022-11-26T17:19:57.871Z,100324.09
2022-11-26T17:22:27.380Z,100304.28
2022-11-26T17:24:55.418Z,100293.91
2022-11-26T17:27:32.651Z,100281.84
2022-11-26T17:30:01.023Z,100287.03
2022-11-26T17:32:29.405Z,100282.72
2022-11-26T17:34:57.435Z,100272.34
2022-11-26T17:37:28.613Z,100270.63
2022-11-26T17:39:57.743Z,100244.78
2022-11-26T17:42:26.201Z,100230.97
2022-11-26T17:44:56.814Z,100239.59
2022-11-26T17:47:26.285Z,100243.06
2022-11-26T17:49:55.387Z,100246.50
2022-11-26T17:52:23.954Z,100244.75
2022-11-26T17:54:53.416Z,100242.19
2022-11-26T17:57:22.925Z,100228.38
2022-11-26T17:59:50.952Z,100211.13
2022-11-26T18:02:19.011Z,100205.94
2022-11-26T18:04:47.178Z,100190.41
2022-11-26T18:07:17.713Z,100189.56
2022-11-26T18:09:46.547Z,100173.16
2022-11-26T18:12:24.942Z,100165.41
2022-11-26T18:14:54.321Z,100138.66
2022-11-26T18:17:22.843Z,100135.19
2022-11-26T18:19:51.918Z,100128.31
2022-11-26T18:22:25.248Z,100117.09
2022-11-26T18:24:56.971Z,100103.25
2022-11-26T18:27:28.699Z,100126.56
2022-11-26T18:29:56.784Z,100123.97
2022-11-26T18:32:24.878Z,100116.22
2022-11-26T18:34:53.506Z,100099.84
2022-11-26T18:37:21.733Z,100088.63
2022-11-26T18:39:49.756Z,100106.72
2022-11-26T18:45:09.955Z,100107.63
2022-11-26T18:47:38.334Z,100102.44
2022-11-26T18:50:07.829Z,100099.00
2022-11-26T18:52:36.146Z,100090.38
2022-11-26T18:55:08.400Z,100082.59
2022-11-26T18:57:36.847Z,100083.44
2022-11-26T19:00:09.003Z,100076.53
2022-11-26T19:02:38.356Z,100070.50
2022-11-26T19:05:08.062Z,100059.25
2022-11-26T19:07:36.200Z,100059.25
2022-11-26T19:10:04.392Z,100060.97
2022-11-26T19:12:32.547Z,100045.44
2022-11-26T19:15:01.545Z,100037.69
2022-11-26T19:17:31.239Z,100048.91
2022-11-26T19:19:59.442Z,100039.41
2022-11-26T19:22:27.598Z,100042.84
2022-11-26T19:24:55.739Z,100056.66
2022-11-26T19:27:23.771Z,100046.28
2022-11-26T19:29:51.813Z,100047.13
2022-11-26T19:32:19.862Z,100053.16
2022-11-26T19:34:49.315Z,100061.75
2022-11-26T19:37:17.434Z,100059.16
2022-11-26T19:39:45.427Z,100072.09
2022-11-26T19:42:13.529Z,100056.53
2022-11-26T19:44:41.850Z,100054.78
2022-11-26T19:47:09.900Z,100056.53
2022-11-26T19:49:38.258Z,100055.63
2022-11-26T19:52:08.017Z,100059.09
2022-11-26T19:54:36.050Z,100066.84
2022-11-26T19:57:04.097Z,100070.28
2022-11-26T19:59:32.280Z,100077.16
2022-11-26T20:02:00.452Z,100075.44
2022-11-26T20:04:29.704Z,100073.66
2022-11-26T20:06:58.829Z,100082.28
2022-11-26T20:09:28.221Z,100068.47
2022-11-26T20:11:57.357Z,100073.66
2022-11-26T20:14:25.402Z,100070.22
2022-11-26T20:16:59.297Z,100077.94
2022-11-26T20:19:28.874Z,100083.06
2022-11-26T20:21:57.395Z,100080.41
2022-11-26T20:24:25.444Z,100071.72
2022-11-26T20:26:55.147Z,100068.22
2022-11-26T20:29:23.250Z,100094.13
2022-11-26T20:31:52.801Z,100094.09
2022-11-26T20:34:22.744Z,100090.69
2022-11-26T20:36:51.340Z,100094.19
2022-11-26T20:39:21.569Z,100102.03
2022-11-26T20:41:49.767Z,100118.44
2022-11-26T20:44:19.448Z,100118.50
2022-11-26T20:46:47.493Z,100121.97
2022-11-26T20:49:16.221Z,100130.66
2022-11-26T20:51:44.388Z,100136.72
2022-11-26T20:54:12.439Z,100144.50
2022-11-26T20:56:40.441Z,100148.84
2022-11-26T20:59:09.981Z,100128.09
2022-11-26T21:01:39.912Z,100137.63
2022-11-26T21:04:08.348Z,100150.59
2022-11-26T21:06:36.962Z,100152.31
2022-11-26T21:09:07.383Z,100162.69
2022-11-26T21:11:35.695Z,100167.91
2022-11-26T21:14:04.064Z,100187.72
2022-11-26T21:16:32.808Z,100186.00
2022-11-26T21:19:02.569Z,100191.16
2022-11-26T21:21:30.718Z,100208.44
2022-11-26T21:23:59.257Z,100197.19
2022-11-26T21:26:27.960Z,100218.78
2022-11-26T21:28:57.354Z,100237.78
2022-11-26T21:31:26.315Z,100255.94
2022-11-26T21:33:59.117Z,100266.31
2022-11-26T21:36:29.283Z,100274.09
2022-11-26T21:38:57.118Z,100312.09
2022-11-26T21:41:25.696Z,100300.00
2022-11-26T21:43:53.749Z,100282.75
2022-11-26T21:46:23.730Z,100293.09
2022-11-26T21:48:52.912Z,100312.03
2022-11-26T21:51:22.152Z,100316.34
2022-11-26T21:53:56.708Z,100332.66
2022-11-26T21:56:26.406Z,100329.19
2022-11-26T21:58:56.982Z,100332.63
2022-11-26T22:01:28.194Z,100342.94
2022-11-26T22:03:59.274Z,100343.78
2022-11-26T22:06:28.544Z,100354.94
2022-11-26T22:08:58.339Z,100348.91
2022-11-26T22:11:35.858Z,100353.16
2022-11-26T22:14:08.661Z,100358.28
2022-11-26T22:16:39.830Z,100351.31
2022-11-26T22:19:08.214Z,100361.63
2022-11-26T22:21:38.491Z,100369.31
2022-11-26T22:24:11.929Z,100360.63
2022-11-26T22:26:40.299Z,100365.75
2022-11-26T22:29:08.955Z,100368.31
2022-11-26T22:31:38.604Z,100372.63
2022-11-26T22:34:09.569Z,100375.22
2022-11-26T22:36:38.435Z,100380.41
2022-11-26T22:39:11.580Z,100381.25
2022-11-26T22:41:40.566Z,100388.16
2022-11-26T22:44:09.611Z,100394.22
2022-11-26T22:46:39.266Z,100400.22
2022-11-26T22:49:08.442Z,100407.06
2022-11-26T22:51:36.947Z,100402.69
2022-11-26T22:54:07.034Z,100395.78
2022-11-26T22:56:38.115Z,100394.91
2022-11-26T22:59:07.223Z,100415.53
2022-11-26T23:01:36.837Z,100420.66
2022-11-26T23:04:07.330Z,100434.44
2022-11-26T23:06:36.887Z,100442.19
2022-11-26T23:09:08.427Z,100438.72
2022-11-26T23:11:40.370Z,100456.78
2022-11-26T23:14:12.141Z,100459.31
2022-11-26T23:16:42.026Z,100452.44
2022-11-26T23:19:10.833Z,100467.03
2022-11-26T23:21:43.144Z,100472.19
2022-11-26T23:24:11.657Z,100475.56
2022-11-26T23:26:41.638Z,100476.41
2022-11-26T23:29:10.381Z,100476.34
2022-11-26T23:31:40.081Z,100471.13
2022-11-26T23:34:09.154Z,100471.13
2022-11-26T23:36:38.470Z,100473.66
2022-11-26T23:39:08.474Z,100489.19
2022-11-26T23:41:36.647Z,100487.44
2022-11-26T23:44:06.403Z,100496.03
2022-11-26T23:46:36.166Z,100505.53
2022-11-26T23:49:04.788Z,100511.66
2022-11-26T23:51:33.987Z,100525.53
2022-11-26T23:54:02.214Z,100523.00
2022-11-26T23:56:33.110Z,100528.22
2022-11-26T23:59:03.084Z,100521.34
